Airfield :
LOGIN :

Register | Disclaimer

   EN    FR    IT 

 










Legend :    VFR   Marginal VFR   IFR   Intensive IFR   Very Intensive IFR
Visi :
Ceiling :
>= 8 km
>= 3000ft
5 to 8 km
1000 to 3000 ft
1500m to 5 km
500 to 1000 ft
800 to 1500m
200 to 500 ft
< 800m
< 200 ft
Symbols :   Thunderstorms  Fog  Heavy snow  Heavy precipitations  Wind > 20 kt
SIGMETs :     Misc.  Thunderstorms  Icing  Turbulence  Mountain Waves  Volcanic Ashes






- Airport Elevation : 147 ft
- IATA code : DUS


EDDL - Düsseldorf Int.

CURRENT METAR :
  • 271920Z 15011KT 9999 FEW028 SCT038 07/06 Q1000 NOSIG

EXPIRED METARs :
  • 271850Z 16009KT 9999 FEW048 07/06 Q1001 NOSIG
  • 271820Z 15010KT CAVOK 07/06 Q1001 NOSIG
  • 271750Z 15010KT 9999 FEW025 SCT049 07/05 Q1002 NOSIG
  • 271720Z 16010KT 9999 FEW033 07/05 Q1002 NOSIG
  • 271650Z 17012KT 9999 FEW022 SCT033 07/05 Q1003 NOSIG

TAF TAF EDDL
Valid from the 27 at 18:00 until the 29 at 00:00 UTC


271700Z 2718/2824 17011KT 9999 BKN025
PROB30
TEMPO 2720/2801 RA
TEMPO 2801/2814 SHRA BKN020TCU
BECMG 2803/2806 23015G25KT
PROB30
TEMPO 2804/2810 27025G40KT TSGS BKN020CB
BECMG 2806/2808 25020G30KT
TEMPO 2810/2814 26025G40KT
BECMG 2815/2817 24015G25KT
BECMG 2817/2819 23012KT



MET'MAP, your aeronautical weather chart ! - Copyright ORBIFLY December 2007 - Disclaimer

ORBIFLY MET'MAP TEAM :

Programming & Development : Alexandra Zaïnal
Concept & original design : Baudouin d'Aumeries
Assistance for programming : Marc-Olivier Méhu
Technical & hardware support : Manuel Goepfert

Contact : metmap@orbifly.com




SOURCES & CREDITS :

   NOAA